sensor_id;sensor_type;location;lat;lon;timestamp;temperature;humidity
20858;DHT22;10589;53.636;10.012;2023-04-03T03:45:09;-1.40;99.90
20858;DHT22;10589;53.636;10.012;2023-04-03T03:47:35;-1.40;99.90
20858;DHT22;10589;53.636;10.012;2023-04-03T03:50:01;-1.40;99.90
20858;DHT22;10589;53.636;10.012;2023-04-03T03:52:26;-1.40;99.90
20858;DHT22;10589;53.636;10.012;2023-04-03T03:54:52;-1.40;99.90
20858;DHT22;10589;53.636;10.012;2023-04-03T03:57:18;-1.40;99.90
20858;DHT22;10589;53.636;10.012;2023-04-03T03:59:43;-1.40;99.90
20858;DHT22;10589;53.636;10.012;2023-04-03T04:02:10;-1.40;99.90
20858;DHT22;10589;53.636;10.012;2023-04-03T04:04:36;-1.40;99.90
20858;DHT22;10589;53.636;10.012;2023-04-03T04:07:02;-1.40;99.90
20858;DHT22;10589;53.636;10.012;2023-04-03T04:09:29;-1.40;99.90
20858;DHT22;10589;53.636;10.012;2023-04-03T04:11:55;-1.40;99.90
20858;DHT22;10589;53.636;10.012;2023-04-03T04:14:21;-1.40;99.90
20858;DHT22;10589;53.636;10.012;2023-04-03T04:16:47;-1.50;99.90
20858;DHT22;10589;53.636;10.012;2023-04-03T04:19:13;-1.40;99.90
20858;DHT22;10589;53.636;10.012;2023-04-03T04:21:39;-1.50;99.90
20858;DHT22;10589;53.636;10.012;2023-04-03T04:24:05;-1.50;99.90
20858;DHT22;10589;53.636;10.012;2023-04-03T04:26:38;-1.50;99.90
20858;DHT22;10589;53.636;10.012;2023-04-03T04:29:24;-1.50;99.90
20858;DHT22;10589;53.636;10.012;2023-04-03T04:31:52;-1.50;99.90
20858;DHT22;10589;53.636;10.012;2023-04-03T04:34:20;-1.50;99.90
20858;DHT22;10589;53.636;10.012;2023-04-03T04:36:53;-1.50;99.90
20858;DHT22;10589;53.636;10.012;2023-04-03T04:39:18;-1.50;99.90
20858;DHT22;10589;53.636;10.012;2023-04-03T04:41:44;-1.50;99.90
20858;DHT22;10589;53.636;10.012;2023-04-03T04:44:10;-1.60;99.90
20858;DHT22;10589;53.636;10.012;2023-04-03T04:46:37;-1.60;99.90
20858;DHT22;10589;53.636;10.012;2023-04-03T04:49:02;-1.60;99.90
20858;DHT22;10589;53.636;10.012;2023-04-03T04:51:29;-1.60;99.90
20858;DHT22;10589;53.636;10.012;2023-04-03T04:53:56;-1.50;99.90
20858;DHT22;10589;53.636;10.012;2023-04-03T04:56:22;-1.60;99.90
20858;DHT22;10589;53.636;10.012;2023-04-03T04:58:47;-1.60;99.90
20858;DHT22;10589;53.636;10.012;2023-04-03T05:01:45;-1.60;99.90
20858;DHT22;10589;53.636;10.012;2023-04-03T05:04:10;-1.60;99.90
20858;DHT22;10589;53.636;10.012;2023-04-03T05:06:40;-1.60;99.90
20858;DHT22;10589;53.636;10.012;2023-04-03T05:09:06;-1.60;99.90
20858;DHT22;10589;53.636;10.012;2023-04-03T05:11:32;-1.60;99.90
20858;DHT22;10589;53.636;10.012;2023-04-03T05:13:58;-1.50;99.90
20858;DHT22;10589;53.636;10.012;2023-04-03T05:16:23;-1.50;99.90
20858;DHT22;10589;53.636;10.012;2023-04-03T05:18:49;-1.50;99.90
20858;DHT22;10589;53.636;10.012;2023-04-03T05:21:15;-1.50;99.90
20858;DHT22;10589;53.636;10.012;2023-04-03T05:23:40;-1.40;99.90
20858;DHT22;10589;53.636;10.012;2023-04-03T05:26:06;-1.40;99.90
20858;DHT22;10589;53.636;10.012;2023-04-03T05:28:32;-1.40;99.90
20858;DHT22;10589;53.636;10.012;2023-04-03T05:30:58;-1.30;99.90
20858;DHT22;10589;53.636;10.012;2023-04-03T05:33:25;-1.30;99.90
20858;DHT22;10589;53.636;10.012;2023-04-03T05:35:52;-1.30;99.90
20858;DHT22;10589;53.636;10.012;2023-04-03T05:38:18;-1.20;99.90
20858;DHT22;10589;53.636;10.012;2023-04-03T05:40:44;-1.10;99.90
20858;DHT22;10589;53.636;10.012;2023-04-03T05:43:09;-1.10;99.90
20858;DHT22;10589;53.636;10.012;2023-04-03T05:45:35;-1.00;99.90
20858;DHT22;10589;53.636;10.012;2023-04-03T05:48:01;-0.90;99.90
20858;DHT22;10589;53.636;10.012;2023-04-03T05:50:26;-0.80;99.90
20858;DHT22;10589;53.636;10.012;2023-04-03T05:52:55;-0.80;99.90
20858;DHT22;10589;53.636;10.012;2023-04-03T05:55:21;-0.70;99.90
20858;DHT22;10589;53.636;10.012;2023-04-03T05:57:47;-0.60;99.90
20858;DHT22;10589;53.636;10.012;2023-04-03T06:00:14;-0.60;99.90
20858;DHT22;10589;53.636;10.012;2023-04-03T06:02:41;-0.50;99.90
20858;DHT22;10589;53.636;10.012;2023-04-03T06:05:08;-0.50;99.90
20858;DHT22;10589;53.636;10.012;2023-04-03T06:07:34;-0.40;99.90
20858;DHT22;10589;53.636;10.012;2023-04-03T06:10:00;-0.30;99.90
20858;DHT22;10589;53.636;10.012;2023-04-03T06:12:27;-0.20;99.90
20858;DHT22;10589;53.636;10.012;2023-04-03T06:14:54;-0.10;99.90
20858;DHT22;10589;53.636;10.012;2023-04-03T06:17:20;0.00;99.90
20858;DHT22;10589;53.636;10.012;2023-04-03T06:19:46;0.10;99.90
20858;DHT22;10589;53.636;10.012;2023-04-03T06:22:12;0.30;99.90
20858;DHT22;10589;53.636;10.012;2023-04-03T06:24:38;0.40;99.90
20858;DHT22;10589;53.636;10.012;2023-04-03T06:27:04;0.40;99.90
20858;DHT22;10589;53.636;10.012;2023-04-03T06:29:30;0.40;99.90
20858;DHT22;10589;53.636;10.012;2023-04-03T06:31:55;0.40;99.90
20858;DHT22;10589;53.636;10.012;2023-04-03T06:34:21;0.50;99.90
20858;DHT22;10589;53.636;10.012;2023-04-03T06:36:47;0.60;99.90
20858;DHT22;10589;53.636;10.012;2023-04-03T06:39:16;0.60;99.90
20858;DHT22;10589;53.636;10.012;2023-04-03T06:41:42;0.70;99.90
20858;DHT22;10589;53.636;10.012;2023-04-03T06:44:08;0.90;99.90
20858;DHT22;10589;53.636;10.012;2023-04-03T06:46:37;1.10;99.90
20858;DHT22;10589;53.636;10.012;2023-04-03T06:49:03;1.30;99.90
20858;DHT22;10589;53.636;10.012;2023-04-03T06:51:30;1.30;99.90
20858;DHT22;10589;53.636;10.012;2023-04-03T06:53:58;1.30;99.90
20858;DHT22;10589;53.636;10.012;2023-04-03T06:56:24;1.40;99.90
20858;DHT22;10589;53.636;10.012;2023-04-03T06:58:51;1.50;99.90
20858;DHT22;10589;53.636;10.012;2023-04-03T07:01:17;1.80;99.90
20858;DHT22;10589;53.636;10.012;2023-04-03T07:03:55;2.00;99.90
20858;DHT22;10589;53.636;10.012;2023-04-03T07:06:22;2.10;99.90
20858;DHT22;10589;53.636;10.012;2023-04-03T07:08:47;2.20;99.90
20858;DHT22;10589;53.636;10.012;2023-04-03T07:11:17;2.20;99.90
20858;DHT22;10589;53.636;10.012;2023-04-03T07:13:42;2.40;99.90
20858;DHT22;10589;53.636;10.012;2023-04-03T07:16:09;2.50;99.90
20858;DHT22;10589;53.636;10.012;2023-04-03T07:18:35;2.70;99.90
20858;DHT22;10589;53.636;10.012;2023-04-03T07:21:01;2.80;99.90
20858;DHT22;10589;53.636;10.012;2023-04-03T07:23:27;2.80;99.90
20858;DHT22;10589;53.636;10.012;2023-04-03T07:25:53;3.00;99.90
20858;DHT22;10589;53.636;10.012;2023-04-03T07:28:20;3.10;99.90
20858;DHT22;10589;53.636;10.012;2023-04-03T07:30:53;3.20;99.90
20858;DHT22;10589;53.636;10.012;2023-04-03T07:33:21;3.30;99.90
20858;DHT22;10589;53.636;10.012;2023-04-03T07:35:47;3.30;99.90
20858;DHT22;10589;53.636;10.012;2023-04-03T07:38:13;3.40;99.90
20858;DHT22;10589;53.636;10.012;2023-04-03T07:40:39;3.50;99.90
20858;DHT22;10589;53.636;10.012;2023-04-03T07:43:05;3.50;99.90
20858;DHT22;10589;53.636;10.012;2023-04-03T07:45:34;3.60;99.90
20858;DHT22;10589;53.636;10.012;2023-04-03T07:48:00;3.70;99.90
20858;DHT22;10589;53.636;10.012;2023-04-03T07:50:27;3.80;99.90
20858;DHT22;10589;53.636;10.012;2023-04-03T07:52:52;3.80;99.90
20858;DHT22;10589;53.636;10.012;2023-04-03T07:55:20;4.00;99.90
20858;DHT22;10589;53.636;10.012;2023-04-03T07:57:45;4.00;99.90
20858;DHT22;10589;53.636;10.012;2023-04-03T08:00:11;4.00;99.90
20858;DHT22;10589;53.636;10.012;2023-04-03T08:02:37;4.10;99.90
20858;DHT22;10589;53.636;10.012;2023-04-03T08:05:03;4.10;99.90
20858;DHT22;10589;53.636;10.012;2023-04-03T08:07:30;4.20;99.90
20858;DHT22;10589;53.636;10.012;2023-04-03T08:09:56;4.20;99.90
20858;DHT22;10589;53.636;10.012;2023-04-03T08:12:22;4.30;99.90
20858;DHT22;10589;53.636;10.012;2023-04-03T08:14:48;4.40;99.90
20858;DHT22;10589;53.636;10.012;2023-04-03T08:17:13;4.60;99.90
20858;DHT22;10589;53.636;10.012;2023-04-03T08:19:39;4.70;99.90
20858;DHT22;10589;53.636;10.012;2023-04-03T08:22:05;4.70;99.90
20858;DHT22;10589;53.636;10.012;2023-04-03T08:24:32;4.80;99.90
20858;DHT22;10589;53.636;10.012;2023-04-03T08:26:57;4.90;99.90
20858;DHT22;10589;53.636;10.012;2023-04-03T08:29:24;4.90;99.90
20858;DHT22;10589;53.636;10.012;2023-04-03T08:31:50;5.00;99.90
20858;DHT22;10589;53.636;10.012;2023-04-03T08:34:16;5.00;99.90
20858;DHT22;10589;53.636;10.012;2023-04-03T08:36:41;4.90;99.90
20858;DHT22;10589;53.636;10.012;2023-04-03T08:39:07;5.00;99.90
20858;DHT22;10589;53.636;10.012;2023-04-03T08:49:15;5.50;99.90
20858;DHT22;10589;53.636;10.012;2023-04-03T08:51:46;5.50;99.90
20858;DHT22;10589;53.636;10.012;2023-04-03T08:54:27;5.60;99.90
20858;DHT22;10589;53.636;10.012;2023-04-03T08:56:53;5.70;99.90
20858;DHT22;10589;53.636;10.012;2023-04-03T08:59:29;5.80;99.90
20858;DHT22;10589;53.636;10.012;2023-04-03T09:01:58;5.80;99.90
20858;DHT22;10589;53.636;10.012;2023-04-03T09:04:28;5.90;99.90
20858;DHT22;10589;53.636;10.012;2023-04-03T09:07:04;6.00;99.90
20858;DHT22;10589;53.636;10.012;2023-04-03T09:09:36;6.00;99.90
20858;DHT22;10589;53.636;10.012;2023-04-03T09:12:25;6.10;99.90
20858;DHT22;10589;53.636;10.012;2023-04-03T09:17:49;6.10;99.90
20858;DHT22;10589;53.636;10.012;2023-04-03T09:20:30;6.30;99.90
20858;DHT22;10589;53.636;10.012;2023-04-03T09:22:58;6.40;99.90
20858;DHT22;10589;53.636;10.012;2023-04-03T09:25:34;6.50;99.90
20858;DHT22;10589;53.636;10.012;2023-04-03T09:28:01;6.70;99.90
20858;DHT22;10589;53.636;10.012;2023-04-03T09:30:28;6.80;99.90
20858;DHT22;10589;53.636;10.012;2023-04-03T09:32:56;6.80;99.90
20858;DHT22;10589;53.636;10.012;2023-04-03T09:35:23;6.80;99.90
20858;DHT22;10589;53.636;10.012;2023-04-03T09:37:52;6.90;99.90
20858;DHT22;10589;53.636;10.012;2023-04-03T09:40:37;7.00;99.90
20858;DHT22;10589;53.636;10.012;2023-04-03T09:43:21;7.10;99.90
20858;DHT22;10589;53.636;10.012;2023-04-03T09:45:48;7.10;99.90
20858;DHT22;10589;53.636;10.012;2023-04-03T09:53:33;7.20;99.90
20858;DHT22;10589;53.636;10.012;2023-04-03T09:56:00;7.30;99.90
20858;DHT22;10589;53.636;10.012;2023-04-03T10:00:56;7.40;99.90
20858;DHT22;10589;53.636;10.012;2023-04-03T10:03:32;7.60;99.90
20858;DHT22;10589;53.636;10.012;2023-04-03T10:05:58;7.30;99.90
20858;DHT22;10589;53.636;10.012;2023-04-03T10:08:34;7.60;99.90
20858;DHT22;10589;53.636;10.012;2023-04-03T10:13:32;7.80;99.90
20858;DHT22;10589;53.636;10.012;2023-04-03T10:24:28;7.80;99.90
20858;DHT22;10589;53.636;10.012;2023-04-03T10:29:51;8.20;99.90
20858;DHT22;10589;53.636;10.012;2023-04-03T10:40:42;8.20;99.90
20858;DHT22;10589;53.636;10.012;2023-04-03T10:49:08;8.10;99.90
20858;DHT22;10589;53.636;10.012;2023-04-03T10:54:19;8.50;99.90
20858;DHT22;10589;53.636;10.012;2023-04-03T10:56:55;8.70;99.90
20858;DHT22;10589;53.636;10.012;2023-04-03T10:59:38;9.00;99.90
20858;DHT22;10589;53.636;10.012;2023-04-03T11:02:19;9.20;99.90
20858;DHT22;10589;53.636;10.012;2023-04-03T11:04:51;9.20;99.90
20858;DHT22;10589;53.636;10.012;2023-04-03T11:07:21;9.10;99.90
20858;DHT22;10589;53.636;10.012;2023-04-03T11:09:51;9.10;99.90
20858;DHT22;10589;53.636;10.012;2023-04-03T11:15:02;8.90;99.90
20858;DHT22;10589;53.636;10.012;2023-04-03T11:17:54;9.00;99.90
20858;DHT22;10589;53.636;10.012;2023-04-03T11:20:30;8.90;99.90
20858;DHT22;10589;53.636;10.012;2023-04-03T11:23:04;8.70;99.90
20858;DHT22;10589;53.636;10.012;2023-04-03T11:25:33;8.50;99.90
20858;DHT22;10589;53.636;10.012;2023-04-03T11:28:05;8.20;99.90
20858;DHT22;10589;53.636;10.012;2023-04-03T11:35:52;7.90;99.90
20858;DHT22;10589;53.636;10.012;2023-04-03T11:38:29;7.80;99.90
20858;DHT22;10589;53.636;10.012;2023-04-03T11:40:57;7.90;99.90
20858;DHT22;10589;53.636;10.012;2023-04-03T11:46:06;7.80;99.90
20858;DHT22;10589;53.636;10.012;2023-04-03T11:51:03;8.50;99.90
20858;DHT22;10589;53.636;10.012;2023-04-03T11:53:48;8.90;99.90
20858;DHT22;10589;53.636;10.012;2023-04-03T12:01:53;8.50;99.90
20858;DHT22;10589;53.636;10.012;2023-04-03T12:04:21;8.30;99.90
20858;DHT22;10589;53.636;10.012;2023-04-03T12:09:34;8.00;99.90
20858;DHT22;10589;53.636;10.012;2023-04-03T12:12:21;8.00;99.90
20858;DHT22;10589;53.636;10.012;2023-04-03T12:14:47;8.20;99.90
20858;DHT22;10589;53.636;10.012;2023-04-03T12:17:26;7.80;99.90
20858;DHT22;10589;53.636;10.012;2023-04-03T12:19:52;7.80;99.90
20858;DHT22;10589;53.636;10.012;2023-04-03T12:22:20;8.10;99.90
20858;DHT22;10589;53.636;10.012;2023-04-03T12:24:51;8.30;99.90
20858;DHT22;10589;53.636;10.012;2023-04-03T12:27:40;8.40;99.90
20858;DHT22;10589;53.636;10.012;2023-04-03T12:30:15;8.40;99.90
20858;DHT22;10589;53.636;10.012;2023-04-03T12:35:35;9.20;99.90
20858;DHT22;10589;53.636;10.012;2023-04-03T12:46:09;9.90;99.90
20858;DHT22;10589;53.636;10.012;2023-04-03T12:48:56;10.10;99.90
20858;DHT22;10589;53.636;10.012;2023-04-03T12:51:34;10.30;99.90
20858;DHT22;10589;53.636;10.012;2023-04-03T12:54:13;10.60;99.90
20858;DHT22;10589;53.636;10.012;2023-04-03T12:56:40;11.00;99.90
20858;DHT22;10589;53.636;10.012;2023-04-03T12:59:32;11.70;99.90
20858;DHT22;10589;53.636;10.012;2023-04-03T13:02:00;13.20;99.90
20858;DHT22;10589;53.636;10.012;2023-04-03T13:04:30;13.70;99.90
20858;DHT22;10589;53.636;10.012;2023-04-03T13:06:57;14.50;99.90
20858;DHT22;10589;53.636;10.012;2023-04-03T13:09:28;14.50;96.90
20858;DHT22;10589;53.636;10.012;2023-04-03T13:12:01;14.10;96.40
20858;DHT22;10589;53.636;10.012;2023-04-03T13:14:28;14.90;95.70
20858;DHT22;10589;53.636;10.012;2023-04-03T13:17:10;15.80;95.00
20858;DHT22;10589;53.636;10.012;2023-04-03T13:19:38;16.30;93.10
20858;DHT22;10589;53.636;10.012;2023-04-03T13:22:08;17.00;90.10
20858;DHT22;10589;53.636;10.012;2023-04-03T13:24:37;16.20;89.20
20858;DHT22;10589;53.636;10.012;2023-04-03T13:27:05;15.50;90.00
20858;DHT22;10589;53.636;10.012;2023-04-03T13:29:36;16.00;91.00
20858;DHT22;10589;53.636;10.012;2023-04-03T13:32:04;16.20;90.90
20858;DHT22;10589;53.636;10.012;2023-04-03T13:34:40;15.60;87.10
20858;DHT22;10589;53.636;10.012;2023-04-03T13:37:11;14.90;89.40
20858;DHT22;10589;53.636;10.012;2023-04-03T13:39:43;13.30;88.80
20858;DHT22;10589;53.636;10.012;2023-04-03T13:42:36;12.00;91.70
20858;DHT22;10589;53.636;10.012;2023-04-03T13:45:22;11.60;92.50
20858;DHT22;10589;53.636;10.012;2023-04-03T13:47:51;12.50;92.30
20858;DHT22;10589;53.636;10.012;2023-04-03T13:50:23;13.50;91.10
20858;DHT22;10589;53.636;10.012;2023-04-03T13:53:02;14.20;90.50
20858;DHT22;10589;53.636;10.012;2023-04-03T13:55:29;14.80;88.70
20858;DHT22;10589;53.636;10.012;2023-04-03T13:58:16;15.70;89.20
20858;DHT22;10589;53.636;10.012;2023-04-03T14:00:54;17.10;86.90
20858;DHT22;10589;53.636;10.012;2023-04-03T14:03:37;17.40;84.60
20858;DHT22;10589;53.636;10.012;2023-04-03T14:06:10;17.00;84.50
20858;DHT22;10589;53.636;10.012;2023-04-03T14:08:36;16.60;83.20
20858;DHT22;10589;53.636;10.012;2023-04-03T14:11:02;16.70;82.50
20858;DHT22;10589;53.636;10.012;2023-04-03T14:13:30;17.80;81.50
20858;DHT22;10589;53.636;10.012;2023-04-03T14:15:56;18.20;82.20
20858;DHT22;10589;53.636;10.012;2023-04-03T14:18:22;17.90;81.20
20858;DHT22;10589;53.636;10.012;2023-04-03T14:20:48;17.30;77.30
20858;DHT22;10589;53.636;10.012;2023-04-03T14:23:14;17.00;78.00
20858;DHT22;10589;53.636;10.012;2023-04-03T14:25:40;16.50;78.30
20858;DHT22;10589;53.636;10.012;2023-04-03T14:28:32;15.80;80.00
20858;DHT22;10589;53.636;10.012;2023-04-03T14:30:58;15.10;81.60
20858;DHT22;10589;53.636;10.012;2023-04-03T14:33:25;15.60;87.00
20858;DHT22;10589;53.636;10.012;2023-04-03T14:35:53;14.70;85.30
20858;DHT22;10589;53.636;10.012;2023-04-03T14:38:27;14.00;85.30
20858;DHT22;10589;53.636;10.012;2023-04-03T14:40:54;13.60;87.70
20858;DHT22;10589;53.636;10.012;2023-04-03T14:43:20;14.00;88.30
20858;DHT22;10589;53.636;10.012;2023-04-03T14:45:46;15.70;87.00
20858;DHT22;10589;53.636;10.012;2023-04-03T14:48:20;15.20;83.40
20858;DHT22;10589;53.636;10.012;2023-04-03T14:50:47;15.40;85.80
20858;DHT22;10589;53.636;10.012;2023-04-03T14:53:14;14.40;85.20
20858;DHT22;10589;53.636;10.012;2023-04-03T14:55:45;14.20;86.30
20858;DHT22;10589;53.636;10.012;2023-04-03T14:58:16;14.00;88.30
20858;DHT22;10589;53.636;10.012;2023-04-03T15:00:42;12.60;89.00
20858;DHT22;10589;53.636;10.012;2023-04-03T15:03:20;12.20;90.90
20858;DHT22;10589;53.636;10.012;2023-04-03T15:05:47;13.20;91.30
20858;DHT22;10589;53.636;10.012;2023-04-03T15:08:22;13.90;90.80
20858;DHT22;10589;53.636;10.012;2023-04-03T15:10:49;12.90;90.90
20858;DHT22;10589;53.636;10.012;2023-04-03T15:13:18;11.80;90.70
20858;DHT22;10589;53.636;10.012;2023-04-03T15:15:45;10.90;91.10
20858;DHT22;10589;53.636;10.012;2023-04-03T15:18:18;10.20;92.60
20858;DHT22;10589;53.636;10.012;2023-04-03T15:20:47;9.50;92.50
20858;DHT22;10589;53.636;10.012;2023-04-03T15:23:14;9.20;93.20
20858;DHT22;10589;53.636;10.012;2023-04-03T15:25:42;9.30;94.20
20858;DHT22;10589;53.636;10.012;2023-04-03T15:28:11;9.30;94.90
20858;DHT22;10589;53.636;10.012;2023-04-03T15:30:41;9.20;94.60
20858;DHT22;10589;53.636;10.012;2023-04-03T15:33:06;9.30;95.80
20858;DHT22;10589;53.636;10.012;2023-04-03T15:35:33;9.40;94.40
20858;DHT22;10589;53.636;10.012;2023-04-03T15:37:59;9.50;93.60
20858;DHT22;10589;53.636;10.012;2023-04-03T15:40:24;10.40;93.70
20858;DHT22;10589;53.636;10.012;2023-04-03T15:42:51;10.20;93.50
20858;DHT22;10589;53.636;10.012;2023-04-03T15:45:16;10.80;95.60
20858;DHT22;10589;53.636;10.012;2023-04-03T15:47:42;11.10;94.20
20858;DHT22;10589;53.636;10.012;2023-04-03T15:50:08;10.90;93.80
20858;DHT22;10589;53.636;10.012;2023-04-03T15:52:34;10.80;94.50
20858;DHT22;10589;53.636;10.012;2023-04-03T15:55:00;10.90;94.50
20858;DHT22;10589;53.636;10.012;2023-04-03T15:57:26;11.00;94.70
20858;DHT22;10589;53.636;10.012;2023-04-03T15:59:52;11.10;95.40
20858;DHT22;10589;53.636;10.012;2023-04-03T16:02:18;11.60;94.40
20858;DHT22;10589;53.636;10.012;2023-04-03T16:04:44;10.40;93.90
20858;DHT22;10589;53.636;10.012;2023-04-03T16:07:09;9.30;94.90
20858;DHT22;10589;53.636;10.012;2023-04-03T16:09:35;8.60;96.10
20858;DHT22;10589;53.636;10.012;2023-04-03T16:12:03;8.20;96.60
20858;DHT22;10589;53.636;10.012;2023-04-03T16:14:29;7.80;97.30
20858;DHT22;10589;53.636;10.012;2023-04-03T16:16:56;7.60;98.10
20858;DHT22;10589;53.636;10.012;2023-04-03T16:19:22;7.50;98.80
20858;DHT22;10589;53.636;10.012;2023-04-03T16:21:48;7.50;99.70
20858;DHT22;10589;53.636;10.012;2023-04-03T16:24:14;8.10;98.90
20858;DHT22;10589;53.636;10.012;2023-04-03T16:26:40;9.20;98.40
20858;DHT22;10589;53.636;10.012;2023-04-03T16:29:05;10.10;97.70
20858;DHT22;10589;53.636;10.012;2023-04-03T16:31:33;11.40;96.90
20858;DHT22;10589;53.636;10.012;2023-04-03T16:34:00;11.50;97.20
20858;DHT22;10589;53.636;10.012;2023-04-03T16:36:26;11.60;96.90
20858;DHT22;10589;53.636;10.012;2023-04-03T16:38:51;11.80;96.50
20858;DHT22;10589;53.636;10.012;2023-04-03T16:41:17;11.50;96.70
20858;DHT22;10589;53.636;10.012;2023-04-03T16:43:43;11.70;97.40
20858;DHT22;10589;53.636;10.012;2023-04-03T16:46:08;11.60;96.60
20858;DHT22;10589;53.636;10.012;2023-04-03T16:48:34;10.30;96.90
20858;DHT22;10589;53.636;10.012;2023-04-03T16:51:00;9.20;98.50
20858;DHT22;10589;53.636;10.012;2023-04-03T16:53:26;8.60;99.90
20858;DHT22;10589;53.636;10.012;2023-04-03T16:55:52;8.20;99.90
20858;DHT22;10589;53.636;10.012;2023-04-03T16:58:18;7.90;99.90
20858;DHT22;10589;53.636;10.012;2023-04-03T17:00:44;8.00;99.90
20858;DHT22;10589;53.636;10.012;2023-04-03T17:03:10;7.80;99.90
20858;DHT22;10589;53.636;10.012;2023-04-03T17:05:36;7.60;99.90
20858;DHT22;10589;53.636;10.012;2023-04-03T17:08:01;7.40;99.90
20858;DHT22;10589;53.636;10.012;2023-04-03T17:10:28;7.10;99.90
20858;DHT22;10589;53.636;10.012;2023-04-03T17:12:53;6.70;99.90
20858;DHT22;10589;53.636;10.012;2023-04-03T17:15:20;6.40;99.90
20858;DHT22;10589;53.636;10.012;2023-04-03T17:17:46;6.20;99.90
20858;DHT22;10589;53.636;10.012;2023-04-03T17:20:13;6.10;99.90
20858;DHT22;10589;53.636;10.012;2023-04-03T17:22:39;6.10;99.90
20858;DHT22;10589;53.636;10.012;2023-04-03T17:25:05;6.00;99.90
20858;DHT22;10589;53.636;10.012;2023-04-03T17:27:31;5.90;99.90
20858;DHT22;10589;53.636;10.012;2023-04-03T17:29:56;5.80;99.90
20858;DHT22;10589;53.636;10.012;2023-04-03T17:32:22;5.70;99.90
20858;DHT22;10589;53.636;10.012;2023-04-03T17:34:50;5.60;99.90
20858;DHT22;10589;53.636;10.012;2023-04-03T17:37:16;5.50;99.90
20858;DHT22;10589;53.636;10.012;2023-04-03T17:39:42;5.50;99.90
20858;DHT22;10589;53.636;10.012;2023-04-03T17:42:07;5.40;99.90
20858;DHT22;10589;53.636;10.012;2023-04-03T17:44:33;5.40;99.90
20858;DHT22;10589;53.636;10.012;2023-04-03T17:46:59;5.30;99.90
20858;DHT22;10589;53.636;10.012;2023-04-03T17:49:24;5.30;99.90
20858;DHT22;10589;53.636;10.012;2023-04-03T17:51:50;5.20;99.90
20858;DHT22;10589;53.636;10.012;2023-04-03T17:54:16;5.20;99.90
20858;DHT22;10589;53.636;10.012;2023-04-03T17:56:41;5.10;99.90
20858;DHT22;10589;53.636;10.012;2023-04-03T17:59:13;5.00;99.90
20858;DHT22;10589;53.636;10.012;2023-04-03T18:01:39;5.00;99.90
20858;DHT22;10589;53.636;10.012;2023-04-03T18:04:05;4.90;99.90
20858;DHT22;10589;53.636;10.012;2023-04-03T18:06:47;4.80;99.90
20858;DHT22;10589;53.636;10.012;2023-04-03T18:09:25;4.80;99.90
20858;DHT22;10589;53.636;10.012;2023-04-03T18:11:54;4.70;99.90
20858;DHT22;10589;53.636;10.012;2023-04-03T18:14:23;4.70;99.90
20858;DHT22;10589;53.636;10.012;2023-04-03T18:16:50;4.60;99.90
20858;DHT22;10589;53.636;10.012;2023-04-03T18:19:16;4.60;99.90
20858;DHT22;10589;53.636;10.012;2023-04-03T18:21:42;4.60;99.90
20858;DHT22;10589;53.636;10.012;2023-04-03T18:24:13;4.50;99.90
20858;DHT22;10589;53.636;10.012;2023-04-03T18:26:40;4.40;99.90
20858;DHT22;10589;53.636;10.012;2023-04-03T18:29:08;4.40;99.90
20858;DHT22;10589;53.636;10.012;2023-04-03T18:31:35;4.30;99.90
20858;DHT22;10589;53.636;10.012;2023-04-03T18:34:01;4.20;99.90
20858;DHT22;10589;53.636;10.012;2023-04-03T18:36:28;4.20;99.90
20858;DHT22;10589;53.636;10.012;2023-04-03T18:38:54;4.10;99.90
20858;DHT22;10589;53.636;10.012;2023-04-03T18:41:24;4.10;99.90
20858;DHT22;10589;53.636;10.012;2023-04-03T18:43:54;4.00;99.90
20858;DHT22;10589;53.636;10.012;2023-04-03T18:46:20;3.90;99.90
20858;DHT22;10589;53.636;10.012;2023-04-03T18:48:46;3.90;99.90
20858;DHT22;10589;53.636;10.012;2023-04-03T18:51:13;3.90;99.90
20858;DHT22;10589;53.636;10.012;2023-04-03T18:53:39;3.80;99.90
20858;DHT22;10589;53.636;10.012;2023-04-03T18:56:04;3.70;99.90
20858;DHT22;10589;53.636;10.012;2023-04-03T18:58:30;3.70;99.90
20858;DHT22;10589;53.636;10.012;2023-04-03T19:00:57;3.60;99.90
20858;DHT22;10589;53.636;10.012;2023-04-03T19:03:23;3.60;99.90
20858;DHT22;10589;53.636;10.012;2023-04-03T19:05:49;3.50;99.90
20858;DHT22;10589;53.636;10.012;2023-04-03T19:08:14;3.50;99.90
20858;DHT22;10589;53.636;10.012;2023-04-03T19:10:40;3.50;99.90
20858;DHT22;10589;53.636;10.012;2023-04-03T19:13:06;3.40;99.90
20858;DHT22;10589;53.636;10.012;2023-04-03T19:15:31;3.30;99.90
20858;DHT22;10589;53.636;10.012;2023-04-03T19:17:57;3.30;99.90
20858;DHT22;10589;53.636;10.012;2023-04-03T19:20:23;3.10;99.90
20858;DHT22;10589;53.636;10.012;2023-04-03T19:22:48;3.20;99.90
20858;DHT22;10589;53.636;10.012;2023-04-03T19:25:14;3.10;99.90
20858;DHT22;10589;53.636;10.012;2023-04-03T19:27:39;3.10;99.90
20858;DHT22;10589;53.636;10.012;2023-04-03T19:30:06;3.10;99.90
20858;DHT22;10589;53.636;10.012;2023-04-03T19:32:32;3.10;99.90
20858;DHT22;10589;53.636;10.012;2023-04-03T19:34:59;3.00;99.90
20858;DHT22;10589;53.636;10.012;2023-04-03T19:37:26;3.00;99.90
20858;DHT22;10589;53.636;10.012;2023-04-03T19:39:52;2.90;99.90
20858;DHT22;10589;53.636;10.012;2023-04-03T19:42:18;2.90;99.90
20858;DHT22;10589;53.636;10.012;2023-04-03T19:44:44;2.80;99.90
20858;DHT22;10589;53.636;10.012;2023-04-03T19:47:10;2.70;99.90
20858;DHT22;10589;53.636;10.012;2023-04-03T19:49:37;2.80;99.90
20858;DHT22;10589;53.636;10.012;2023-04-03T19:52:03;2.80;99.90
20858;DHT22;10589;53.636;10.012;2023-04-03T19:54:29;2.80;99.90
20858;DHT22;10589;53.636;10.012;2023-04-03T19:56:56;2.80;99.90
20858;DHT22;10589;53.636;10.012;2023-04-03T19:59:23;2.80;99.90
20858;DHT22;10589;53.636;10.012;2023-04-03T20:01:49;2.70;99.90
20858;DHT22;10589;53.636;10.012;2023-04-03T20:04:14;2.70;99.90
20858;DHT22;10589;53.636;10.012;2023-04-03T20:06:40;2.50;99.90
20858;DHT22;10589;53.636;10.012;2023-04-03T20:09:06;2.50;99.90
20858;DHT22;10589;53.636;10.012;2023-04-03T20:11:36;2.50;99.90
20858;DHT22;10589;53.636;10.012;2023-04-03T20:14:02;2.50;99.90
20858;DHT22;10589;53.636;10.012;2023-04-03T20:16:28;2.40;99.90
20858;DHT22;10589;53.636;10.012;2023-04-03T20:18:55;2.40;99.90
20858;DHT22;10589;53.636;10.012;2023-04-03T20:21:31;2.30;99.90
20858;DHT22;10589;53.636;10.012;2023-04-03T20:23:58;2.20;99.90
20858;DHT22;10589;53.636;10.012;2023-04-03T20:26:25;2.20;99.90
20858;DHT22;10589;53.636;10.012;2023-04-03T20:28:53;2.10;99.90
20858;DHT22;10589;53.636;10.012;2023-04-03T20:31:20;2.00;99.90
20858;DHT22;10589;53.636;10.012;2023-04-03T20:33:47;2.00;99.90
20858;DHT22;10589;53.636;10.012;2023-04-03T20:36:13;1.90;99.90
20858;DHT22;10589;53.636;10.012;2023-04-03T20:38:40;1.80;99.90